sensor_id;sensor_type;location;lat;lon;timestamp;temperature;humidity
12841;DHT22;6487;48.626;12.486;2022-12-07T00:01:45;4.30;99.90
12841;DHT22;6487;48.626;12.486;2022-12-07T00:04:16;4.40;99.90
12841;DHT22;6487;48.626;12.486;2022-12-07T00:06:46;4.40;99.90
12841;DHT22;6487;48.626;12.486;2022-12-07T00:09:16;4.30;99.90
12841;DHT22;6487;48.626;12.486;2022-12-07T00:11:48;4.40;99.90
12841;DHT22;6487;48.626;12.486;2022-12-07T00:14:18;4.20;99.90
12841;DHT22;6487;48.626;12.486;2022-12-07T00:16:48;4.30;99.90
12841;DHT22;6487;48.626;12.486;2022-12-07T00:19:18;4.40;99.90
12841;DHT22;6487;48.626;12.486;2022-12-07T00:21:46;4.40;99.90
12841;DHT22;6487;48.626;12.486;2022-12-07T00:24:14;4.30;99.90
12841;DHT22;6487;48.626;12.486;2022-12-07T00:26:43;4.30;99.90
12841;DHT22;6487;48.626;12.486;2022-12-07T00:29:15;4.30;99.90
12841;DHT22;6487;48.626;12.486;2022-12-07T00:31:45;4.30;99.90
12841;DHT22;6487;48.626;12.486;2022-12-07T00:34:16;4.40;99.90
12841;DHT22;6487;48.626;12.486;2022-12-07T00:36:46;4.30;99.90
12841;DHT22;6487;48.626;12.486;2022-12-07T00:39:15;4.40;99.90
12841;DHT22;6487;48.626;12.486;2022-12-07T00:41:43;4.30;99.90
12841;DHT22;6487;48.626;12.486;2022-12-07T00:44:12;4.30;99.90
12841;DHT22;6487;48.626;12.486;2022-12-07T00:46:40;4.30;99.90
12841;DHT22;6487;48.626;12.486;2022-12-07T00:49:08;4.40;99.90
12841;DHT22;6487;48.626;12.486;2022-12-07T00:51:38;4.40;99.90
12841;DHT22;6487;48.626;12.486;2022-12-07T00:54:06;4.50;99.90
12841;DHT22;6487;48.626;12.486;2022-12-07T00:56:35;4.50;99.90
12841;DHT22;6487;48.626;12.486;2022-12-07T00:59:04;4.40;99.90
12841;DHT22;6487;48.626;12.486;2022-12-07T01:01:33;4.50;99.90
12841;DHT22;6487;48.626;12.486;2022-12-07T01:04:04;4.40;99.90
12841;DHT22;6487;48.626;12.486;2022-12-07T01:06:32;4.50;99.90
12841;DHT22;6487;48.626;12.486;2022-12-07T01:09:02;4.40;99.90
12841;DHT22;6487;48.626;12.486;2022-12-07T01:11:31;4.50;99.90
12841;DHT22;6487;48.626;12.486;2022-12-07T01:14:00;4.40;99.90
12841;DHT22;6487;48.626;12.486;2022-12-07T01:16:30;4.40;99.90
12841;DHT22;6487;48.626;12.486;2022-12-07T01:19:00;4.40;99.90
12841;DHT22;6487;48.626;12.486;2022-12-07T01:21:31;4.30;99.90
12841;DHT22;6487;48.626;12.486;2022-12-07T01:24:05;4.40;99.90
12841;DHT22;6487;48.626;12.486;2022-12-07T01:26:35;4.40;99.90
12841;DHT22;6487;48.626;12.486;2022-12-07T01:29:03;4.30;99.90
12841;DHT22;6487;48.626;12.486;2022-12-07T01:31:33;4.30;99.90
12841;DHT22;6487;48.626;12.486;2022-12-07T01:34:01;4.40;99.90
12841;DHT22;6487;48.626;12.486;2022-12-07T01:36:31;4.40;99.90
12841;DHT22;6487;48.626;12.486;2022-12-07T01:39:03;4.40;99.90
12841;DHT22;6487;48.626;12.486;2022-12-07T01:41:36;4.40;99.90
12841;DHT22;6487;48.626;12.486;2022-12-07T01:44:19;4.50;99.90
12841;DHT22;6487;48.626;12.486;2022-12-07T01:46:49;4.40;99.90
12841;DHT22;6487;48.626;12.486;2022-12-07T01:49:26;4.30;99.90
12841;DHT22;6487;48.626;12.486;2022-12-07T01:52:04;4.30;99.90
12841;DHT22;6487;48.626;12.486;2022-12-07T01:54:40;4.40;99.90
12841;DHT22;6487;48.626;12.486;2022-12-07T01:57:09;4.30;99.90
12841;DHT22;6487;48.626;12.486;2022-12-07T01:59:38;4.30;99.90
12841;DHT22;6487;48.626;12.486;2022-12-07T02:02:11;4.40;99.90
12841;DHT22;6487;48.626;12.486;2022-12-07T02:04:43;4.30;99.90
12841;DHT22;6487;48.626;12.486;2022-12-07T02:07:12;4.30;99.90
12841;DHT22;6487;48.626;12.486;2022-12-07T02:09:42;4.20;99.90
12841;DHT22;6487;48.626;12.486;2022-12-07T02:12:10;4.30;99.90
12841;DHT22;6487;48.626;12.486;2022-12-07T02:14:38;4.20;99.90
12841;DHT22;6487;48.626;12.486;2022-12-07T02:17:11;4.20;99.90
12841;DHT22;6487;48.626;12.486;2022-12-07T02:20:16;4.20;99.90
12841;DHT22;6487;48.626;12.486;2022-12-07T02:23:00;4.20;99.90
12841;DHT22;6487;48.626;12.486;2022-12-07T02:25:56;4.20;99.90
12841;DHT22;6487;48.626;12.486;2022-12-07T02:28:33;4.30;99.90
12841;DHT22;6487;48.626;12.486;2022-12-07T02:31:08;4.20;99.90
12841;DHT22;6487;48.626;12.486;2022-12-07T02:33:43;4.20;99.90
12841;DHT22;6487;48.626;12.486;2022-12-07T02:36:18;4.20;99.90
12841;DHT22;6487;48.626;12.486;2022-12-07T02:38:54;4.20;99.90
12841;DHT22;6487;48.626;12.486;2022-12-07T02:41:29;4.20;99.90
12841;DHT22;6487;48.626;12.486;2022-12-07T02:44:00;4.20;99.90
12841;DHT22;6487;48.626;12.486;2022-12-07T02:46:33;4.30;99.90
12841;DHT22;6487;48.626;12.486;2022-12-07T02:49:07;4.20;99.90
12841;DHT22;6487;48.626;12.486;2022-12-07T02:51:40;4.20;99.90
12841;DHT22;6487;48.626;12.486;2022-12-07T02:54:11;4.20;99.90
12841;DHT22;6487;48.626;12.486;2022-12-07T02:56:47;4.10;99.90
12841;DHT22;6487;48.626;12.486;2022-12-07T02:59:26;4.10;99.90
12841;DHT22;6487;48.626;12.486;2022-12-07T03:02:08;4.10;99.90
12841;DHT22;6487;48.626;12.486;2022-12-07T03:04:46;4.20;99.90
12841;DHT22;6487;48.626;12.486;2022-12-07T03:07:26;4.20;99.90
12841;DHT22;6487;48.626;12.486;2022-12-07T03:10:02;4.30;99.90
12841;DHT22;6487;48.626;12.486;2022-12-07T03:12:44;4.30;99.90
12841;DHT22;6487;48.626;12.486;2022-12-07T03:15:18;4.20;99.90
12841;DHT22;6487;48.626;12.486;2022-12-07T03:17:51;4.20;99.90
12841;DHT22;6487;48.626;12.486;2022-12-07T03:20:22;4.20;99.90
12841;DHT22;6487;48.626;12.486;2022-12-07T03:22:53;4.20;99.90
12841;DHT22;6487;48.626;12.486;2022-12-07T03:25:22;4.20;99.90
12841;DHT22;6487;48.626;12.486;2022-12-07T03:27:53;4.20;99.90
12841;DHT22;6487;48.626;12.486;2022-12-07T03:30:26;4.20;99.90
12841;DHT22;6487;48.626;12.486;2022-12-07T03:33:01;4.30;99.90
12841;DHT22;6487;48.626;12.486;2022-12-07T03:35:34;4.20;99.90
12841;DHT22;6487;48.626;12.486;2022-12-07T03:38:10;4.20;99.90
12841;DHT22;6487;48.626;12.486;2022-12-07T03:40:48;4.20;99.90
12841;DHT22;6487;48.626;12.486;2022-12-07T03:43:18;4.10;99.90
12841;DHT22;6487;48.626;12.486;2022-12-07T03:45:56;4.10;99.90
12841;DHT22;6487;48.626;12.486;2022-12-07T03:48:34;4.10;99.90
12841;DHT22;6487;48.626;12.486;2022-12-07T03:51:13;4.20;99.90
12841;DHT22;6487;48.626;12.486;2022-12-07T03:53:46;4.10;99.90
12841;DHT22;6487;48.626;12.486;2022-12-07T03:56:18;4.10;99.90
12841;DHT22;6487;48.626;12.486;2022-12-07T03:58:46;4.10;99.90
12841;DHT22;6487;48.626;12.486;2022-12-07T04:01:17;4.10;99.90
12841;DHT22;6487;48.626;12.486;2022-12-07T04:03:47;4.10;99.90
12841;DHT22;6487;48.626;12.486;2022-12-07T04:06:15;4.00;99.90
12841;DHT22;6487;48.626;12.486;2022-12-07T04:08:43;4.00;99.90
12841;DHT22;6487;48.626;12.486;2022-12-07T04:11:12;4.00;99.90
12841;DHT22;6487;48.626;12.486;2022-12-07T04:13:40;4.10;99.90
12841;DHT22;6487;48.626;12.486;2022-12-07T04:16:26;4.10;99.90
12841;DHT22;6487;48.626;12.486;2022-12-07T04:18:55;4.00;99.90
12841;DHT22;6487;48.626;12.486;2022-12-07T04:21:24;4.00;99.90
12841;DHT22;6487;48.626;12.486;2022-12-07T04:23:52;4.00;99.90
12841;DHT22;6487;48.626;12.486;2022-12-07T04:26:20;3.90;99.90
12841;DHT22;6487;48.626;12.486;2022-12-07T04:28:48;3.90;99.90
12841;DHT22;6487;48.626;12.486;2022-12-07T04:31:17;4.00;99.90
12841;DHT22;6487;48.626;12.486;2022-12-07T04:33:45;3.90;99.90
12841;DHT22;6487;48.626;12.486;2022-12-07T04:36:15;3.90;99.90
12841;DHT22;6487;48.626;12.486;2022-12-07T04:38:43;3.90;99.90
12841;DHT22;6487;48.626;12.486;2022-12-07T04:41:11;3.80;99.90
12841;DHT22;6487;48.626;12.486;2022-12-07T04:43:40;3.80;99.90
12841;DHT22;6487;48.626;12.486;2022-12-07T04:46:08;3.80;99.90
12841;DHT22;6487;48.626;12.486;2022-12-07T04:48:36;3.90;99.90
12841;DHT22;6487;48.626;12.486;2022-12-07T04:51:05;3.80;99.90
12841;DHT22;6487;48.626;12.486;2022-12-07T04:53:34;3.80;99.90
12841;DHT22;6487;48.626;12.486;2022-12-07T04:56:03;3.80;99.90
12841;DHT22;6487;48.626;12.486;2022-12-07T04:58:31;3.80;99.90
12841;DHT22;6487;48.626;12.486;2022-12-07T05:01:00;3.80;99.90
12841;DHT22;6487;48.626;12.486;2022-12-07T05:03:28;3.80;99.90
12841;DHT22;6487;48.626;12.486;2022-12-07T05:05:56;3.80;99.90
12841;DHT22;6487;48.626;12.486;2022-12-07T05:08:25;3.80;99.90
12841;DHT22;6487;48.626;12.486;2022-12-07T05:10:55;3.90;99.90
12841;DHT22;6487;48.626;12.486;2022-12-07T05:13:23;3.80;99.90
12841;DHT22;6487;48.626;12.486;2022-12-07T05:15:51;3.80;99.90
12841;DHT22;6487;48.626;12.486;2022-12-07T05:18:19;3.80;99.90
12841;DHT22;6487;48.626;12.486;2022-12-07T05:20:48;3.90;99.90
12841;DHT22;6487;48.626;12.486;2022-12-07T05:23:18;3.90;99.90
12841;DHT22;6487;48.626;12.486;2022-12-07T05:25:46;3.70;99.90
12841;DHT22;6487;48.626;12.486;2022-12-07T05:28:16;3.60;99.90
12841;DHT22;6487;48.626;12.486;2022-12-07T05:30:44;3.70;99.90
12841;DHT22;6487;48.626;12.486;2022-12-07T05:33:13;3.70;99.90
12841;DHT22;6487;48.626;12.486;2022-12-07T05:35:41;3.50;99.90
12841;DHT22;6487;48.626;12.486;2022-12-07T05:38:10;3.60;99.90
12841;DHT22;6487;48.626;12.486;2022-12-07T05:40:38;3.70;99.90
12841;DHT22;6487;48.626;12.486;2022-12-07T05:43:06;3.70;99.90
12841;DHT22;6487;48.626;12.486;2022-12-07T05:45:36;3.70;99.90
12841;DHT22;6487;48.626;12.486;2022-12-07T05:48:04;3.70;99.90
12841;DHT22;6487;48.626;12.486;2022-12-07T05:50:33;3.70;99.90
12841;DHT22;6487;48.626;12.486;2022-12-07T05:53:01;3.50;99.90
12841;DHT22;6487;48.626;12.486;2022-12-07T05:55:30;3.60;99.90
12841;DHT22;6487;48.626;12.486;2022-12-07T05:57:58;3.70;99.90
12841;DHT22;6487;48.626;12.486;2022-12-07T06:00:45;3.70;99.90
12841;DHT22;6487;48.626;12.486;2022-12-07T06:03:17;3.70;99.90
12841;DHT22;6487;48.626;12.486;2022-12-07T06:05:45;3.60;99.90
12841;DHT22;6487;48.626;12.486;2022-12-07T06:08:14;3.50;99.90
12841;DHT22;6487;48.626;12.486;2022-12-07T06:10:42;3.50;99.90
12841;DHT22;6487;48.626;12.486;2022-12-07T06:13:11;3.50;99.90
12841;DHT22;6487;48.626;12.486;2022-12-07T06:15:38;3.50;99.90
12841;DHT22;6487;48.626;12.486;2022-12-07T06:18:08;3.50;99.90
12841;DHT22;6487;48.626;12.486;2022-12-07T06:20:36;3.50;99.90
12841;DHT22;6487;48.626;12.486;2022-12-07T06:23:04;3.40;99.90
12841;DHT22;6487;48.626;12.486;2022-12-07T06:25:32;3.30;99.90
12841;DHT22;6487;48.626;12.486;2022-12-07T06:28:01;3.30;99.90
12841;DHT22;6487;48.626;12.486;2022-12-07T06:30:29;3.40;99.90
12841;DHT22;6487;48.626;12.486;2022-12-07T06:32:57;3.30;99.90
12841;DHT22;6487;48.626;12.486;2022-12-07T06:35:35;3.20;99.90
12841;DHT22;6487;48.626;12.486;2022-12-07T06:38:04;3.10;99.90
12841;DHT22;6487;48.626;12.486;2022-12-07T06:40:32;3.20;99.90
12841;DHT22;6487;48.626;12.486;2022-12-07T06:43:00;3.10;99.90
12841;DHT22;6487;48.626;12.486;2022-12-07T06:45:29;3.00;99.90
12841;DHT22;6487;48.626;12.486;2022-12-07T06:47:57;2.90;99.90
12841;DHT22;6487;48.626;12.486;2022-12-07T06:50:25;2.80;99.90
12841;DHT22;6487;48.626;12.486;2022-12-07T06:52:55;2.70;99.90
12841;DHT22;6487;48.626;12.486;2022-12-07T06:55:23;2.70;99.90
12841;DHT22;6487;48.626;12.486;2022-12-07T06:57:52;2.60;99.90
12841;DHT22;6487;48.626;12.486;2022-12-07T07:00:20;2.60;99.90
12841;DHT22;6487;48.626;12.486;2022-12-07T07:02:49;2.60;99.90
12841;DHT22;6487;48.626;12.486;2022-12-07T07:05:17;2.50;99.90
12841;DHT22;6487;48.626;12.486;2022-12-07T07:07:48;2.50;99.90
12841;DHT22;6487;48.626;12.486;2022-12-07T07:10:37;2.60;99.90
12841;DHT22;6487;48.626;12.486;2022-12-07T07:13:06;2.60;99.90
12841;DHT22;6487;48.626;12.486;2022-12-07T07:15:34;2.70;99.90
12841;DHT22;6487;48.626;12.486;2022-12-07T07:18:06;2.70;99.90
12841;DHT22;6487;48.626;12.486;2022-12-07T07:20:34;2.80;99.90
12841;DHT22;6487;48.626;12.486;2022-12-07T07:23:02;2.80;99.90
12841;DHT22;6487;48.626;12.486;2022-12-07T07:25:31;2.90;99.90
12841;DHT22;6487;48.626;12.486;2022-12-07T07:28:01;2.80;99.90
12841;DHT22;6487;48.626;12.486;2022-12-07T07:30:29;2.80;99.90
12841;DHT22;6487;48.626;12.486;2022-12-07T07:32:58;2.80;99.90
12841;DHT22;6487;48.626;12.486;2022-12-07T07:35:29;2.80;99.90
12841;DHT22;6487;48.626;12.486;2022-12-07T07:37:58;2.80;99.90
12841;DHT22;6487;48.626;12.486;2022-12-07T07:40:26;2.80;99.90
12841;DHT22;6487;48.626;12.486;2022-12-07T07:42:56;2.90;99.90
12841;DHT22;6487;48.626;12.486;2022-12-07T07:45:27;2.90;99.90
12841;DHT22;6487;48.626;12.486;2022-12-07T07:47:56;2.90;99.90
12841;DHT22;6487;48.626;12.486;2022-12-07T07:50:24;2.90;99.90
12841;DHT22;6487;48.626;12.486;2022-12-07T07:52:53;2.90;99.90
12841;DHT22;6487;48.626;12.486;2022-12-07T07:55:21;3.00;99.90
12841;DHT22;6487;48.626;12.486;2022-12-07T07:57:49;3.00;99.90
12841;DHT22;6487;48.626;12.486;2022-12-07T08:00:21;3.00;99.90
12841;DHT22;6487;48.626;12.486;2022-12-07T08:02:51;3.00;99.90
12841;DHT22;6487;48.626;12.486;2022-12-07T08:05:19;3.00;99.90
12841;DHT22;6487;48.626;12.486;2022-12-07T08:07:48;3.10;99.90
12841;DHT22;6487;48.626;12.486;2022-12-07T08:10:16;3.20;99.90
12841;DHT22;6487;48.626;12.486;2022-12-07T08:12:44;3.20;99.90
12841;DHT22;6487;48.626;12.486;2022-12-07T08:15:30;3.20;99.90
12841;DHT22;6487;48.626;12.486;2022-12-07T08:18:00;3.20;99.90
12841;DHT22;6487;48.626;12.486;2022-12-07T08:20:30;3.30;99.90
12841;DHT22;6487;48.626;12.486;2022-12-07T08:22:59;3.30;99.90
12841;DHT22;6487;48.626;12.486;2022-12-07T08:25:27;3.40;99.90
12841;DHT22;6487;48.626;12.486;2022-12-07T08:27:56;3.40;99.90
12841;DHT22;6487;48.626;12.486;2022-12-07T08:30:24;3.50;99.90
12841;DHT22;6487;48.626;12.486;2022-12-07T08:32:53;3.50;99.90
12841;DHT22;6487;48.626;12.486;2022-12-07T08:35:23;3.50;99.90
12841;DHT22;6487;48.626;12.486;2022-12-07T08:37:52;3.60;99.90
12841;DHT22;6487;48.626;12.486;2022-12-07T08:40:21;3.70;99.90
12841;DHT22;6487;48.626;12.486;2022-12-07T08:42:49;3.70;99.90
12841;DHT22;6487;48.626;12.486;2022-12-07T08:45:18;3.80;99.90
12841;DHT22;6487;48.626;12.486;2022-12-07T08:47:56;3.90;99.90
12841;DHT22;6487;48.626;12.486;2022-12-07T08:50:28;3.80;99.90
12841;DHT22;6487;48.626;12.486;2022-12-07T08:52:58;3.90;99.90
12841;DHT22;6487;48.626;12.486;2022-12-07T08:55:27;4.00;99.90
12841;DHT22;6487;48.626;12.486;2022-12-07T08:57:57;4.00;99.90
12841;DHT22;6487;48.626;12.486;2022-12-07T09:00:26;4.00;99.90
12841;DHT22;6487;48.626;12.486;2022-12-07T09:02:54;4.10;99.90
12841;DHT22;6487;48.626;12.486;2022-12-07T09:05:23;4.20;99.90
12841;DHT22;6487;48.626;12.486;2022-12-07T09:07:57;4.30;99.90
12841;DHT22;6487;48.626;12.486;2022-12-07T09:10:28;4.40;99.90
12841;DHT22;6487;48.626;12.486;2022-12-07T09:12:57;4.40;99.90
12841;DHT22;6487;48.626;12.486;2022-12-07T09:15:27;4.30;99.90
12841;DHT22;6487;48.626;12.486;2022-12-07T09:17:55;4.20;99.90
12841;DHT22;6487;48.626;12.486;2022-12-07T09:20:24;4.30;99.90
12841;DHT22;6487;48.626;12.486;2022-12-07T09:22:55;4.40;99.90
12841;DHT22;6487;48.626;12.486;2022-12-07T09:25:23;4.40;99.90
12841;DHT22;6487;48.626;12.486;2022-12-07T09:27:56;4.40;99.90
12841;DHT22;6487;48.626;12.486;2022-12-07T09:30:25;4.30;99.90
12841;DHT22;6487;48.626;12.486;2022-12-07T09:32:55;4.20;99.90
12841;DHT22;6487;48.626;12.486;2022-12-07T09:35:23;4.40;99.90
12841;DHT22;6487;48.626;12.486;2022-12-07T09:37:55;4.50;99.90
12841;DHT22;6487;48.626;12.486;2022-12-07T09:40:23;4.50;99.90
12841;DHT22;6487;48.626;12.486;2022-12-07T09:42:53;4.60;99.90
12841;DHT22;6487;48.626;12.486;2022-12-07T09:45:26;4.70;99.90
12841;DHT22;6487;48.626;12.486;2022-12-07T09:47:59;4.70;99.90
12841;DHT22;6487;48.626;12.486;2022-12-07T09:50:28;4.80;99.90
12841;DHT22;6487;48.626;12.486;2022-12-07T09:53:06;4.80;99.90
12841;DHT22;6487;48.626;12.486;2022-12-07T09:55:37;4.90;99.90
12841;DHT22;6487;48.626;12.486;2022-12-07T09:58:08;5.10;99.90
12841;DHT22;6487;48.626;12.486;2022-12-07T10:00:36;5.40;99.90
12841;DHT22;6487;48.626;12.486;2022-12-07T10:03:05;5.80;99.90
12841;DHT22;6487;48.626;12.486;2022-12-07T10:05:37;5.90;99.90
12841;DHT22;6487;48.626;12.486;2022-12-07T10:08:11;6.00;99.90
12841;DHT22;6487;48.626;12.486;2022-12-07T10:10:40;6.10;99.90
12841;DHT22;6487;48.626;12.486;2022-12-07T10:13:10;6.20;99.90
12841;DHT22;6487;48.626;12.486;2022-12-07T10:15:51;6.30;99.90
12841;DHT22;6487;48.626;12.486;2022-12-07T10:18:29;6.30;99.90
12841;DHT22;6487;48.626;12.486;2022-12-07T10:21:11;6.50;99.90
12841;DHT22;6487;48.626;12.486;2022-12-07T10:23:59;6.60;99.90
12841;DHT22;6487;48.626;12.486;2022-12-07T10:26:31;6.60;99.90
12841;DHT22;6487;48.626;12.486;2022-12-07T10:29:04;6.70;99.90
12841;DHT22;6487;48.626;12.486;2022-12-07T10:31:43;6.90;99.90
12841;DHT22;6487;48.626;12.486;2022-12-07T10:34:21;7.10;99.90
12841;DHT22;6487;48.626;12.486;2022-12-07T10:36:52;7.20;99.90
12841;DHT22;6487;48.626;12.486;2022-12-07T10:39:23;7.10;99.70
12841;DHT22;6487;48.626;12.486;2022-12-07T10:41:56;7.10;99.90
12841;DHT22;6487;48.626;12.486;2022-12-07T10:44:27;7.00;99.90
12841;DHT22;6487;48.626;12.486;2022-12-07T10:47:17;6.90;99.20
12841;DHT22;6487;48.626;12.486;2022-12-07T10:50:18;6.70;99.90
12841;DHT22;6487;48.626;12.486;2022-12-07T10:53:30;6.80;99.90
12841;DHT22;6487;48.626;12.486;2022-12-07T10:59:38;6.60;99.60
12841;DHT22;6487;48.626;12.486;2022-12-07T11:02:23;6.50;99.60
12841;DHT22;6487;48.626;12.486;2022-12-07T11:05:04;6.50;99.90
12841;DHT22;6487;48.626;12.486;2022-12-07T11:07:45;6.50;99.90
12841;DHT22;6487;48.626;12.486;2022-12-07T11:10:28;6.50;99.90
12841;DHT22;6487;48.626;12.486;2022-12-07T11:16:04;6.60;99.90
12841;DHT22;6487;48.626;12.486;2022-12-07T11:18:48;6.50;99.90
12841;DHT22;6487;48.626;12.486;2022-12-07T11:21:25;6.30;99.90
12841;DHT22;6487;48.626;12.486;2022-12-07T11:24:01;6.30;99.90
12841;DHT22;6487;48.626;12.486;2022-12-07T11:26:46;6.20;99.90
12841;DHT22;6487;48.626;12.486;2022-12-07T11:29:38;6.10;99.90
12841;DHT22;6487;48.626;12.486;2022-12-07T11:32:21;6.10;99.90
12841;DHT22;6487;48.626;12.486;2022-12-07T11:35:04;6.20;99.90
12841;DHT22;6487;48.626;12.486;2022-12-07T11:37:37;6.20;99.90
12841;DHT22;6487;48.626;12.486;2022-12-07T11:40:19;6.30;99.90
12841;DHT22;6487;48.626;12.486;2022-12-07T11:42:53;6.30;99.90
12841;DHT22;6487;48.626;12.486;2022-12-07T11:45:29;6.30;99.90
12841;DHT22;6487;48.626;12.486;2022-12-07T11:48:02;6.30;99.90
12841;DHT22;6487;48.626;12.486;2022-12-07T11:50:34;6.20;99.90
12841;DHT22;6487;48.626;12.486;2022-12-07T11:53:12;6.30;99.90
12841;DHT22;6487;48.626;12.486;2022-12-07T11:55:47;6.30;99.90
12841;DHT22;6487;48.626;12.486;2022-12-07T11:58:36;6.30;99.90
12841;DHT22;6487;48.626;12.486;2022-12-07T12:01:18;6.30;99.90
12841;DHT22;6487;48.626;12.486;2022-12-07T12:04:03;6.30;99.90
12841;DHT22;6487;48.626;12.486;2022-12-07T12:06:34;6.30;99.90
12841;DHT22;6487;48.626;12.486;2022-12-07T12:09:05;6.30;99.90
12841;DHT22;6487;48.626;12.486;2022-12-07T12:12:20;6.20;99.90
12841;DHT22;6487;48.626;12.486;2022-12-07T12:15:35;6.20;99.90
12841;DHT22;6487;48.626;12.486;2022-12-07T12:18:31;6.10;99.90
12841;DHT22;6487;48.626;12.486;2022-12-07T12:21:07;6.10;99.90
12841;DHT22;6487;48.626;12.486;2022-12-07T12:23:41;6.20;99.90
12841;DHT22;6487;48.626;12.486;2022-12-07T12:26:16;6.20;99.90
12841;DHT22;6487;48.626;12.486;2022-12-07T12:28:53;6.10;99.90
12841;DHT22;6487;48.626;12.486;2022-12-07T12:31:34;6.20;99.90
12841;DHT22;6487;48.626;12.486;2022-12-07T12:34:30;6.30;99.90
12841;DHT22;6487;48.626;12.486;2022-12-07T12:37:00;6.20;99.90
12841;DHT22;6487;48.626;12.486;2022-12-07T12:39:29;6.20;99.90
12841;DHT22;6487;48.626;12.486;2022-12-07T12:42:01;6.30;99.90
12841;DHT22;6487;48.626;12.486;2022-12-07T12:47:43;6.00;99.90
12841;DHT22;6487;48.626;12.486;2022-12-07T12:50:23;6.10;99.90
12841;DHT22;6487;48.626;12.486;2022-12-07T12:53:15;6.20;99.90
12841;DHT22;6487;48.626;12.486;2022-12-07T12:59:25;6.20;99.90
12841;DHT22;6487;48.626;12.486;2022-12-07T13:01:56;6.10;99.60
12841;DHT22;6487;48.626;12.486;2022-12-07T13:04:50;6.10;99.90
12841;DHT22;6487;48.626;12.486;2022-12-07T13:10:38;5.90;99.20
12841;DHT22;6487;48.626;12.486;2022-12-07T13:13:33;5.90;98.90
12841;DHT22;6487;48.626;12.486;2022-12-07T13:22:50;5.90;99.50
12841;DHT22;6487;48.626;12.486;2022-12-07T13:25:29;6.00;99.80
12841;DHT22;6487;48.626;12.486;2022-12-07T13:28:07;6.00;99.90
12841;DHT22;6487;48.626;12.486;2022-12-07T13:30:45;5.90;99.80
12841;DHT22;6487;48.626;12.486;2022-12-07T13:33:17;5.80;99.90
12841;DHT22;6487;48.626;12.486;2022-12-07T13:35:47;5.90;99.90
12841;DHT22;6487;48.626;12.486;2022-12-07T13:38:28;5.80;99.90
12841;DHT22;6487;48.626;12.486;2022-12-07T13:41:16;5.80;99.80
12841;DHT22;6487;48.626;12.486;2022-12-07T13:43:48;5.80;99.50
12841;DHT22;6487;48.626;12.486;2022-12-07T13:46:24;5.80;99.50
12841;DHT22;6487;48.626;12.486;2022-12-07T13:48:56;5.80;99.70
12841;DHT22;6487;48.626;12.486;2022-12-07T13:51:26;5.60;99.50
12841;DHT22;6487;48.626;12.486;2022-12-07T13:54:08;5.80;99.70
12841;DHT22;6487;48.626;12.486;2022-12-07T13:56:40;5.70;99.80
12841;DHT22;6487;48.626;12.486;2022-12-07T13:59:14;5.60;99.10
12841;DHT22;6487;48.626;12.486;2022-12-07T14:01:45;5.60;99.80
12841;DHT22;6487;48.626;12.486;2022-12-07T14:04:19;5.60;99.90
12841;DHT22;6487;48.626;12.486;2022-12-07T14:06:59;5.70;99.90
12841;DHT22;6487;48.626;12.486;2022-12-07T14:09:29;5.60;99.90
12841;DHT22;6487;48.626;12.486;2022-12-07T14:12:05;5.70;99.90
12841;DHT22;6487;48.626;12.486;2022-12-07T14:14:34;5.70;99.90
12841;DHT22;6487;48.626;12.486;2022-12-07T14:17:12;5.70;99.90
12841;DHT22;6487;48.626;12.486;2022-12-07T14:19:49;5.80;99.90
12841;DHT22;6487;48.626;12.486;2022-12-07T14:22:29;5.70;99.90
12841;DHT22;6487;48.626;12.486;2022-12-07T14:25:15;5.70;99.90
12841;DHT22;6487;48.626;12.486;2022-12-07T14:27:52;5.70;99.90
12841;DHT22;6487;48.626;12.486;2022-12-07T14:30:25;5.70;99.90
12841;DHT22;6487;48.626;12.486;2022-12-07T14:32:58;5.70;99.90
12841;DHT22;6487;48.626;12.486;2022-12-07T14:35:28;5.70;99.90
12841;DHT22;6487;48.626;12.486;2022-12-07T14:37:57;5.70;99.90
12841;DHT22;6487;48.626;12.486;2022-12-07T14:40:27;5.70;99.90
12841;DHT22;6487;48.626;12.486;2022-12-07T14:43:00;5.70;99.90
12841;DHT22;6487;48.626;12.486;2022-12-07T14:45:30;5.60;99.90
12841;DHT22;6487;48.626;12.486;2022-12-07T14:47:58;5.60;99.90
12841;DHT22;6487;48.626;12.486;2022-12-07T14:50:51;5.60;99.90
12841;DHT22;6487;48.626;12.486;2022-12-07T14:53:43;5.60;99.90
12841;DHT22;6487;48.626;12.486;2022-12-07T14:56:18;5.60;99.90
12841;DHT22;6487;48.626;12.486;2022-12-07T14:58:49;5.70;99.90
12841;DHT22;6487;48.626;12.486;2022-12-07T15:01:17;5.70;99.90
12841;DHT22;6487;48.626;12.486;2022-12-07T15:03:45;5.60;99.90
12841;DHT22;6487;48.626;12.486;2022-12-07T15:06:16;5.70;99.90
12841;DHT22;6487;48.626;12.486;2022-12-07T15:08:45;5.60;99.90
12841;DHT22;6487;48.626;12.486;2022-12-07T15:11:13;5.60;99.90
12841;DHT22;6487;48.626;12.486;2022-12-07T15:13:42;5.60;99.90
12841;DHT22;6487;48.626;12.486;2022-12-07T15:16:30;5.50;99.90
12841;DHT22;6487;48.626;12.486;2022-12-07T15:19:20;5.50;99.90
12841;DHT22;6487;48.626;12.486;2022-12-07T15:21:55;5.50;99.90
12841;DHT22;6487;48.626;12.486;2022-12-07T15:24:25;5.50;99.90
12841;DHT22;6487;48.626;12.486;2022-12-07T15:26:53;5.50;99.90
12841;DHT22;6487;48.626;12.486;2022-12-07T15:29:22;5.50;99.90
12841;DHT22;6487;48.626;12.486;2022-12-07T15:31:52;5.40;99.90
12841;DHT22;6487;48.626;12.486;2022-12-07T15:34:24;5.40;99.90
12841;DHT22;6487;48.626;12.486;2022-12-07T15:36:53;5.40;99.90
12841;DHT22;6487;48.626;12.486;2022-12-07T15:39:21;5.30;99.90
12841;DHT22;6487;48.626;12.486;2022-12-07T15:41:50;5.30;99.90
12841;DHT22;6487;48.626;12.486;2022-12-07T15:44:19;5.30;99.90
12841;DHT22;6487;48.626;12.486;2022-12-07T15:47:06;5.30;99.90
12841;DHT22;6487;48.626;12.486;2022-12-07T15:49:35;5.20;99.90
12841;DHT22;6487;48.626;12.486;2022-12-07T15:52:03;5.20;99.90
12841;DHT22;6487;48.626;12.486;2022-12-07T15:54:32;5.20;99.90
12841;DHT22;6487;48.626;12.486;2022-12-07T15:57:00;5.20;99.90
12841;DHT22;6487;48.626;12.486;2022-12-07T15:59:29;5.20;99.90
12841;DHT22;6487;48.626;12.486;2022-12-07T16:01:57;5.20;99.90
12841;DHT22;6487;48.626;12.486;2022-12-07T16:04:28;5.20;99.90
12841;DHT22;6487;48.626;12.486;2022-12-07T16:06:57;5.20;99.90
12841;DHT22;6487;48.626;12.486;2022-12-07T16:09:25;5.20;99.90
12841;DHT22;6487;48.626;12.486;2022-12-07T16:11:54;5.10;99.90
12841;DHT22;6487;48.626;12.486;2022-12-07T16:14:23;5.10;99.90
12841;DHT22;6487;48.626;12.486;2022-12-07T16:16:51;5.10;99.90
12841;DHT22;6487;48.626;12.486;2022-12-07T16:19:20;5.10;99.90
12841;DHT22;6487;48.626;12.486;2022-12-07T16:21:49;5.10;99.90
12841;DHT22;6487;48.626;12.486;2022-12-07T16:24:18;5.10;99.90
12841;DHT22;6487;48.626;12.486;2022-12-07T16:26:46;5.00;99.90
12841;DHT22;6487;48.626;12.486;2022-12-07T16:29:17;5.00;99.90
12841;DHT22;6487;48.626;12.486;2022-12-07T16:31:47;5.00;99.90
12841;DHT22;6487;48.626;12.486;2022-12-07T16:34:16;5.00;99.90
12841;DHT22;6487;48.626;12.486;2022-12-07T16:36:44;5.00;99.90
12841;DHT22;6487;48.626;12.486;2022-12-07T16:39:33;5.00;99.90
12841;DHT22;6487;48.626;12.486;2022-12-07T16:42:02;5.00;99.90
12841;DHT22;6487;48.626;12.486;2022-12-07T16:44:31;5.00;99.90